Startpagina
METAR-TAF:

METAR-TAF

Vliegvelden :

Batna, Algerije

breedte: 35-33N, lengte: 006-11E, hoogte: 1052 m

Actueel weer

Dit bericht is 37 minuten geleden gemaakt, om 01:00 UTC
Wind 3 kt uit het oostzuidoosten
Temperatuur 2°C
Vochtigheid 80%
Druk 1024 hPa
Zicht 10 km of meer
geen wolken onder 1500 m en geen cumulonimbus

METAR: DABT 290100Z 11003KT CAVOK 02/M01 Q1024

Tijdstip: 02:37 (01:37 UTC)

Verwachting

Dit bericht is 2 uur en het 37 minuten geleden gemaakt, om 23:00 UTC
Verwachting geldig van 29 om 00 UTC tot 29 om 24 UTC
Wind 8 kt uit het noordnoordwesten
Zicht 10 km of meer
geen wolken onder 1500 m en geen cumulonimbus
Kans 30% :
Tijdelijke
van 29 om 00 UTC tot 29 om 08 UTC
Zicht: 2000 m
Verspreide wolken op 800 ft
nevel

TAF: DABT 282300Z 2900/2924 34008KT CAVOK PROB30 TEMPO 2900/2908 2000 BR SCT008

Waarnemingen en weersverwachtingen van meer dan 4000 vliegvelden (METAR en TAF).

De beschikbare stations zijn de gele en rode punten op de kaart.

Ga met uw muis naar het station om de naam te zien.

Klik dan om waarnemingen en weersverwachtingen te zien.

kaart wijzigen: klik op de groene knoppen met een zwart kruis om in te zoomen, op de groene knop met een streepje om uit te zoomen of op de groene pijlen voor aangrenzende kaarten.


METAR-TAF: